createdAt,value
2018-08-14T00:00:37.960Z,10.90
2018-08-14T00:01:38.021Z,10.70
2018-08-14T00:02:37.902Z,11.50
2018-08-14T00:03:37.918Z,10.70
2018-08-14T00:04:37.842Z,11.10
2018-08-14T00:05:37.944Z,11.80
2018-08-14T00:06:37.794Z,10.40
2018-08-14T00:07:37.948Z,10.90
2018-08-14T00:08:37.748Z,10.30
2018-08-14T00:09:37.749Z,10.60
2018-08-14T00:10:37.706Z,11.30
2018-08-14T00:11:37.772Z,11.10
2018-08-14T00:12:37.653Z,10.90
2018-08-14T00:13:37.691Z,11.00
2018-08-14T00:14:37.615Z,10.80
2018-08-14T00:15:37.692Z,10.50
2018-08-14T00:16:37.550Z,10.90
2018-08-14T00:17:37.600Z,11.70
2018-08-14T00:18:37.532Z,11.40
2018-08-14T00:19:37.509Z,11.30
2018-08-14T00:21:24.043Z,11.60
2018-08-14T00:22:24.016Z,11.00
2018-08-14T00:23:23.956Z,11.20
2018-08-14T00:24:24.029Z,11.40
2018-08-14T00:25:23.917Z,10.70
2018-08-14T00:26:23.933Z,11.40
2018-08-14T00:27:23.869Z,11.20
2018-08-14T00:28:23.953Z,11.60
2018-08-14T00:29:23.815Z,11.20
2018-08-14T00:30:23.861Z,11.00
2018-08-14T00:31:26.667Z,11.50
2018-08-14T00:32:23.767Z,10.90
2018-08-14T00:33:23.725Z,10.70
2018-08-14T00:34:23.781Z,11.10
2018-08-14T00:35:23.671Z,11.60
2018-08-14T00:36:23.716Z,11.60
2018-08-14T00:37:23.650Z,11.60
2018-08-14T00:38:23.711Z,11.50
2018-08-14T00:39:23.582Z,11.70
2018-08-14T00:40:24.669Z,11.90
2018-08-14T00:41:23.543Z,11.80
2018-08-14T00:42:23.549Z,12.60
2018-08-14T00:43:23.491Z,11.90
2018-08-14T00:44:23.545Z,12.60
2018-08-14T00:45:23.431Z,12.50
2018-08-14T00:46:23.455Z,13.10
2018-08-14T00:47:23.378Z,13.00
2018-08-14T00:48:23.470Z,13.50
2018-08-14T00:49:23.338Z,12.80
2018-08-14T00:50:23.374Z,12.60
2018-08-14T00:51:23.282Z,13.30
2018-08-14T00:52:23.288Z,13.50
2018-08-14T00:53:23.246Z,13.60
2018-08-14T00:54:23.301Z,13.50
2018-08-14T00:55:23.197Z,13.40
2018-08-14T00:56:23.208Z,13.80
2018-08-14T00:57:23.141Z,13.90
2018-08-14T00:58:23.229Z,13.30
2018-08-14T00:59:23.132Z,13.80
2018-08-14T01:00:23.138Z,13.40
2018-08-14T01:01:23.048Z,13.70
2018-08-14T01:02:23.049Z,13.70
2018-08-14T01:03:22.990Z,14.00
2018-08-14T01:04:23.073Z,13.40
2018-08-14T01:05:22.965Z,13.90
2018-08-14T01:06:22.974Z,13.30
2018-08-14T01:07:22.911Z,14.00
2018-08-14T01:08:22.983Z,14.10
2018-08-14T01:09:22.849Z,13.70
2018-08-14T01:10:22.896Z,13.90
2018-08-14T01:11:22.796Z,14.40
2018-08-14T01:12:22.813Z,14.40
2018-08-14T01:13:22.745Z,13.80
2018-08-14T01:14:22.821Z,14.30
2018-08-14T01:15:22.705Z,13.90
2018-08-14T01:16:22.728Z,14.60
2018-08-14T01:17:22.657Z,14.10
2018-08-14T01:18:23.663Z,13.50
2018-08-14T01:19:22.603Z,14.20
2018-08-14T01:20:22.656Z,14.00
2018-08-14T01:21:22.561Z,14.10
2018-08-14T01:22:22.563Z,13.20
2018-08-14T01:23:22.502Z,15.00
2018-08-14T01:24:22.610Z,14.20
2018-08-14T01:25:22.476Z,13.80
2018-08-14T01:26:22.484Z,14.40
2018-08-14T01:27:22.429Z,14.50
2018-08-14T01:28:22.514Z,13.50
2018-08-14T01:29:22.365Z,13.70
2018-08-14T01:30:22.416Z,14.40
2018-08-14T01:31:22.302Z,13.70
2018-08-14T01:32:22.318Z,14.20
2018-08-14T01:33:22.266Z,14.00
2018-08-14T01:34:22.333Z,14.40
2018-08-14T01:35:22.225Z,12.80
2018-08-14T01:36:22.243Z,13.90
2018-08-14T01:37:22.174Z,13.20
2018-08-14T01:38:22.159Z,13.70
2018-08-14T01:39:22.128Z,13.50
2018-08-14T01:40:22.160Z,14.10
2018-08-14T01:41:22.064Z,13.60
2018-08-14T01:42:22.081Z,13.80
2018-08-14T01:43:22.010Z,13.50
2018-08-14T01:44:22.092Z,13.30
2018-08-14T01:45:21.961Z,13.70
2018-08-14T01:46:21.995Z,13.80
2018-08-14T01:47:21.978Z,14.20
2018-08-14T01:48:21.944Z,13.90
2018-08-14T01:49:21.869Z,13.40
2018-08-14T01:50:22.955Z,13.70
2018-08-14T01:51:21.837Z,13.00
2018-08-14T01:52:21.844Z,13.50
2018-08-14T01:53:21.772Z,13.80
2018-08-14T01:54:22.806Z,14.30
2018-08-14T01:55:21.715Z,14.60
2018-08-14T01:56:21.767Z,13.20
2018-08-14T01:57:21.684Z,13.60
2018-08-14T01:58:21.710Z,13.90
2018-08-14T01:59:21.630Z,14.20
2018-08-14T02:00:22.728Z,13.70
2018-08-14T02:02:08.680Z,14.90
2018-08-14T02:03:10.285Z,14.10
2018-08-14T02:05:03.082Z,15.10
2018-08-14T02:06:03.080Z,14.10
2018-08-14T02:07:57.314Z,14.30
2018-08-14T02:08:57.225Z,14.40
2018-08-14T02:09:57.194Z,15.10
2018-08-14T02:10:59.223Z,14.50
2018-08-14T02:11:57.138Z,14.90
2018-08-14T02:12:59.133Z,15.10
2018-08-14T02:13:57.081Z,14.90
2018-08-14T02:14:57.105Z,14.50
2018-08-14T02:15:57.037Z,14.30
2018-08-14T02:16:58.924Z,14.30
2018-08-14T02:17:59.928Z,14.40
2018-08-14T02:18:59.913Z,15.80
2018-08-14T02:19:58.933Z,16.00
2018-08-14T02:20:59.415Z,15.90
2018-08-14T02:21:56.898Z,15.70
2018-08-14T02:22:59.412Z,16.10
2018-08-14T02:23:56.847Z,16.80
2018-08-14T02:24:59.410Z,17.00
2018-08-14T02:25:58.450Z,17.00
2018-08-14T02:26:56.767Z,17.30
2018-08-14T02:27:56.753Z,17.00
2018-08-14T02:28:59.427Z,18.20
2018-08-14T02:29:58.745Z,18.60
2018-08-14T02:31:42.564Z,17.40
2018-08-14T02:32:43.604Z,18.40
2018-08-14T02:33:42.489Z,18.60
2018-08-14T02:34:43.510Z,18.80
2018-08-14T02:35:42.453Z,18.90
2018-08-14T02:36:42.493Z,18.80
2018-08-14T02:37:42.391Z,19.40
2018-08-14T02:38:42.407Z,18.90
2018-08-14T02:39:42.355Z,19.20
2018-08-14T02:40:43.354Z,18.90
2018-08-14T02:41:42.298Z,18.30
2018-08-14T02:42:42.341Z,20.00
2018-08-14T02:43:42.245Z,19.30
2018-08-14T02:44:42.250Z,17.90
2018-08-14T02:45:42.196Z,19.60
2018-08-14T02:46:42.273Z,19.00
2018-08-14T02:47:42.146Z,19.20
2018-08-14T02:48:42.174Z,18.90
2018-08-14T02:49:42.107Z,19.70
2018-08-14T02:50:42.188Z,18.70
2018-08-14T02:51:42.042Z,19.30
2018-08-14T02:52:42.098Z,17.60
2018-08-14T02:53:41.989Z,18.50
2018-08-14T02:54:42.069Z,18.40
2018-08-14T02:55:41.963Z,19.20
2018-08-14T02:56:42.016Z,18.60
2018-08-14T02:57:41.895Z,18.10
2018-08-14T02:58:41.941Z,18.50
2018-08-14T02:59:41.859Z,20.60
2018-08-14T03:00:41.950Z,19.90
2018-08-14T03:01:41.805Z,20.30
2018-08-14T03:02:41.849Z,19.90
2018-08-14T03:03:41.748Z,20.30
2018-08-14T03:04:41.753Z,19.20
2018-08-14T03:05:41.700Z,20.20
2018-08-14T03:06:41.768Z,20.40
2018-08-14T03:07:41.661Z,19.70
2018-08-14T03:08:41.681Z,19.60
2018-08-14T03:09:41.611Z,22.00
2018-08-14T03:10:41.690Z,21.50
2018-08-14T03:11:41.554Z,21.20
2018-08-14T03:12:41.530Z,22.10
2018-08-14T03:13:42.557Z,20.90
2018-08-14T03:14:41.499Z,22.10
2018-08-14T03:15:41.547Z,22.10
2018-08-14T03:16:41.432Z,23.20
2018-08-14T03:17:41.454Z,22.60
2018-08-14T03:18:41.408Z,21.90
2018-08-14T03:19:41.519Z,22.90
2018-08-14T03:20:41.340Z,22.30
2018-08-14T03:21:41.380Z,23.30
2018-08-14T03:22:41.300Z,21.40
2018-08-14T03:23:41.297Z,21.60
2018-08-14T03:24:41.239Z,22.00
2018-08-14T03:25:41.321Z,22.70
2018-08-14T03:26:41.233Z,23.10
2018-08-14T03:27:41.223Z,24.20
2018-08-14T03:28:41.172Z,22.70
2018-08-14T03:29:41.212Z,23.80
2018-08-14T03:30:41.092Z,22.80
2018-08-14T03:31:41.133Z,24.40
2018-08-14T03:32:41.060Z,23.70
2018-08-14T03:33:41.140Z,23.00
2018-08-14T03:34:41.001Z,24.30
2018-08-14T03:35:41.043Z,24.20
2018-08-14T03:36:40.953Z,24.30
2018-08-14T03:37:40.963Z,24.40
2018-08-14T03:38:40.913Z,24.70
2018-08-14T03:39:40.966Z,24.20
2018-08-14T03:40:40.845Z,26.10
2018-08-14T03:41:40.880Z,26.60
2018-08-14T03:42:40.815Z,25.90
2018-08-14T03:43:40.901Z,24.90
2018-08-14T03:44:40.782Z,24.30
2018-08-14T03:45:40.810Z,25.20
2018-08-14T03:46:40.712Z,25.70
2018-08-14T03:47:40.730Z,25.60
2018-08-14T03:49:29.669Z,27.20
2018-08-14T03:50:29.618Z,26.40
2018-08-14T03:51:29.594Z,26.10
2018-08-14T03:52:29.585Z,27.20
2018-08-14T03:53:29.535Z,25.50
2018-08-14T03:54:29.509Z,27.00
2018-08-14T03:55:29.516Z,26.40
2018-08-14T03:56:29.463Z,26.90
2018-08-14T03:57:29.441Z,26.00
2018-08-14T03:58:30.481Z,28.00
2018-08-14T03:59:29.392Z,27.00
2018-08-14T04:00:29.358Z,26.80
2018-08-14T04:01:29.337Z,27.00
2018-08-14T04:02:29.319Z,26.90
2018-08-14T04:03:29.293Z,26.70
2018-08-14T04:04:29.276Z,26.40
2018-08-14T04:05:29.250Z,27.50
2018-08-14T04:06:29.244Z,28.10
2018-08-14T04:07:29.209Z,28.20
2018-08-14T04:08:29.187Z,26.60
2018-08-14T04:09:29.142Z,28.10
2018-08-14T04:10:29.164Z,26.90
2018-08-14T04:11:29.097Z,27.40
2018-08-14T04:12:29.104Z,29.20
2018-08-14T04:13:29.070Z,28.10
2018-08-14T04:14:29.025Z,29.10
2018-08-14T04:15:29.130Z,27.50
2018-08-14T04:16:28.986Z,28.60
2018-08-14T04:17:29.041Z,29.00
2018-08-14T04:18:28.934Z,30.60
2018-08-14T04:19:28.944Z,29.70
2018-08-14T04:20:28.888Z,28.70
2018-08-14T04:21:28.965Z,29.00
2018-08-14T04:22:28.835Z,29.60
2018-08-14T04:23:28.875Z,29.20
2018-08-14T04:24:28.799Z,30.00
2018-08-14T04:25:28.783Z,29.70
2018-08-14T04:26:28.727Z,28.60
2018-08-14T04:27:28.807Z,29.10
2018-08-14T04:28:28.681Z,29.20
2018-08-14T04:29:28.714Z,29.10
2018-08-14T04:30:28.649Z,29.30
2018-08-14T04:31:30.676Z,28.70
2018-08-14T04:32:28.576Z,27.50
2018-08-14T04:33:28.631Z,29.40
2018-08-14T04:34:28.557Z,28.80
2018-08-14T04:36:15.651Z,30.30
2018-08-14T04:37:15.587Z,28.60
2018-08-14T04:38:15.555Z,28.80
2018-08-14T04:39:15.544Z,29.10
2018-08-14T04:40:15.615Z,30.30
2018-08-14T04:41:15.488Z,29.90
2018-08-14T04:42:15.487Z,30.00
2018-08-14T04:43:15.452Z,30.90
2018-08-14T04:44:15.497Z,31.30
2018-08-14T04:45:15.390Z,29.70
2018-08-14T04:46:15.365Z,30.00
2018-08-14T04:47:15.358Z,30.80
2018-08-14T04:48:15.418Z,31.00
2018-08-14T04:49:15.296Z,31.60
2018-08-14T04:50:15.276Z,31.80
2018-08-14T04:51:15.269Z,29.90
2018-08-14T04:52:15.215Z,31.30
2018-08-14T04:53:15.305Z,31.50
2018-08-14T04:54:15.193Z,30.60
2018-08-14T04:55:15.177Z,30.40
2018-08-14T04:57:06.529Z,32.30
2018-08-14T04:58:06.475Z,31.70
2018-08-14T04:59:06.438Z,31.40
2018-08-14T05:00:06.446Z,31.10
2018-08-14T05:01:06.389Z,31.40
2018-08-14T05:02:06.462Z,30.60
2018-08-14T05:03:06.370Z,30.80
2018-08-14T05:04:07.388Z,31.90
2018-08-14T05:05:06.288Z,30.60
2018-08-14T05:06:06.504Z,30.20
2018-08-14T05:07:06.335Z,30.60
2018-08-14T05:08:07.329Z,29.60
2018-08-14T05:09:06.204Z,30.80
2018-08-14T05:18:47.303Z,33.60
2018-08-14T05:19:46.422Z,31.70
2018-08-14T05:21:07.117Z,31.70
2018-08-14T05:28:43.473Z,32.60
2018-08-14T05:29:43.790Z,31.00
2018-08-14T05:31:15.075Z,30.70
2018-08-14T05:31:43.156Z,32.60
2018-08-14T05:32:42.881Z,32.60
2018-08-14T05:33:44.082Z,32.10
2018-08-14T05:37:07.290Z,32.30
2018-08-14T05:38:02.670Z,30.90
2018-08-14T05:39:19.253Z,30.00
2018-08-14T05:40:03.046Z,32.50
2018-08-14T05:41:07.155Z,31.90
2018-08-14T05:42:02.273Z,32.30
2018-08-14T05:43:07.187Z,30.10
2018-08-14T05:44:02.230Z,31.00
2018-08-14T05:51:25.064Z,32.90
2018-08-14T05:52:15.466Z,32.60
2018-08-14T05:53:25.811Z,32.10
2018-08-14T05:54:14.786Z,32.60
2018-08-14T05:55:15.753Z,34.00
2018-08-14T05:56:14.683Z,32.60
2018-08-14T05:57:15.666Z,30.60
2018-08-14T05:58:14.594Z,31.70
2018-08-14T05:59:19.371Z,32.00
2018-08-14T06:00:14.548Z,31.00
2018-08-14T06:01:21.352Z,31.40
2018-08-14T06:02:14.521Z,31.80
2018-08-14T06:03:14.633Z,32.40
2018-08-14T06:04:14.454Z,31.40
2018-08-14T06:06:57.777Z,32.20
2018-08-14T06:07:43.398Z,31.70
2018-08-14T06:08:43.892Z,31.50
2018-08-14T06:09:43.276Z,32.00
2018-08-14T06:10:59.055Z,30.70
2018-08-14T06:11:43.192Z,29.70
2018-08-14T06:17:51.408Z,30.70
2018-08-14T06:18:55.791Z,27.90
2018-08-14T06:19:51.220Z,29.60
2018-08-14T06:21:07.780Z,28.90
2018-08-14T06:21:51.399Z,27.50
2018-08-14T06:22:57.731Z,26.30
2018-08-14T06:23:51.034Z,26.40
2018-08-14T06:24:56.689Z,25.80
2018-08-14T06:25:50.965Z,24.40
2018-08-14T06:26:55.769Z,24.10
2018-08-14T06:29:18.318Z,23.30
2018-08-14T06:30:19.452Z,20.50
2018-08-14T06:31:18.281Z,20.80
2018-08-14T06:32:20.240Z,20.90
2018-08-14T06:33:18.110Z,21.30
2018-08-14T06:34:18.480Z,21.70
2018-08-14T06:35:18.084Z,18.90
2018-08-14T06:36:18.047Z,17.80
2018-08-14T06:37:18.012Z,17.70
2018-08-14T06:38:18.066Z,18.00
2018-08-14T06:39:17.955Z,17.70
2018-08-14T06:40:17.974Z,16.40
2018-08-14T06:41:17.950Z,17.90
2018-08-14T06:42:17.871Z,16.40
2018-08-14T06:44:10.328Z,16.90
2018-08-14T06:45:05.392Z,15.70
2018-08-14T06:46:05.331Z,14.00
2018-08-14T06:47:05.490Z,14.60
2018-08-14T06:48:05.994Z,14.00
2018-08-14T06:49:05.287Z,14.10
2018-08-14T06:50:05.147Z,15.50
2018-08-14T06:51:05.212Z,14.40
2018-08-14T06:52:05.120Z,13.40
2018-08-14T06:53:52.398Z,13.40
2018-08-14T06:54:52.163Z,13.80
2018-08-14T06:55:52.151Z,12.80
2018-08-14T06:56:52.128Z,12.20
2018-08-14T06:57:52.139Z,12.10
2018-08-14T06:58:52.073Z,12.00
2018-08-14T06:59:52.098Z,12.70
2018-08-14T07:00:52.012Z,12.90
2018-08-14T07:01:51.965Z,12.10
2018-08-14T07:02:51.937Z,11.80
2018-08-14T07:03:51.908Z,12.20
2018-08-14T07:04:51.890Z,10.70
2018-08-14T07:05:51.888Z,10.90
2018-08-14T07:06:51.833Z,11.50
2018-08-14T07:07:51.831Z,10.50
2018-08-14T07:08:51.889Z,10.70
2018-08-14T07:09:51.769Z,11.00
2018-08-14T07:11:38.077Z,11.40
2018-08-14T07:12:38.045Z,10.70
2018-08-14T07:14:32.676Z,11.60
2018-08-14T07:15:32.559Z,11.30
2018-08-14T07:16:32.505Z,11.90
2018-08-14T07:17:32.612Z,12.50
2018-08-14T07:18:32.470Z,11.50
2018-08-14T07:19:32.422Z,12.00
2018-08-14T07:20:32.409Z,11.80
2018-08-14T07:21:32.367Z,12.00
2018-08-14T07:22:32.434Z,10.60
2018-08-14T07:23:32.346Z,10.10
2018-08-14T07:24:32.292Z,9.70
2018-08-14T07:25:32.307Z,10.00
2018-08-14T07:26:32.258Z,9.40
2018-08-14T07:27:32.305Z,8.60
2018-08-14T07:28:32.192Z,7.80
2018-08-14T07:29:32.173Z,8.50
2018-08-14T07:30:32.171Z,8.30
2018-08-14T07:31:32.289Z,7.80
2018-08-14T07:32:32.118Z,8.00
2018-08-14T07:34:18.370Z,7.90
2018-08-14T07:35:18.321Z,7.50
2018-08-14T07:36:18.206Z,7.20
2018-08-14T07:37:18.283Z,6.50
2018-08-14T07:38:18.140Z,6.90
2018-08-14T07:39:18.214Z,7.40
2018-08-14T07:40:18.088Z,6.50
2018-08-14T07:41:18.261Z,6.10
2018-08-14T07:42:18.027Z,6.60
2018-08-14T07:43:18.153Z,6.10
2018-08-14T07:44:17.986Z,6.20
2018-08-14T07:45:18.148Z,5.70
2018-08-14T07:46:17.950Z,5.90
2018-08-14T07:47:18.051Z,5.90
2018-08-14T07:48:17.942Z,5.40
2018-08-14T07:49:17.959Z,5.50
2018-08-14T07:50:17.898Z,4.20
2018-08-14T07:51:17.989Z,4.80
2018-08-14T07:52:17.806Z,5.30
2018-08-14T07:53:17.902Z,4.80
2018-08-14T07:54:17.749Z,5.00
2018-08-14T07:55:17.802Z,5.20
2018-08-14T07:56:17.689Z,3.60
2018-08-14T07:57:17.820Z,3.80
2018-08-14T07:58:17.660Z,3.50
2018-08-14T07:59:17.666Z,3.60
2018-08-14T08:00:17.603Z,3.80
2018-08-14T08:02:05.714Z,4.80
2018-08-14T08:03:05.709Z,3.60
2018-08-14T08:04:59.377Z,3.80
2018-08-14T08:05:59.433Z,3.90
2018-08-14T08:06:59.377Z,4.30
2018-08-14T08:07:59.295Z,4.10
2018-08-14T08:08:59.241Z,4.30
2018-08-14T08:09:59.310Z,5.00
2018-08-14T08:10:59.191Z,4.40
2018-08-14T08:11:59.238Z,5.00
2018-08-14T08:12:59.148Z,5.50
2018-08-14T08:13:59.226Z,6.50
2018-08-14T08:14:59.098Z,6.20
2018-08-14T08:15:59.132Z,6.50
2018-08-14T08:16:59.061Z,5.90
2018-08-14T08:18:00.056Z,5.50
2018-08-14T08:18:59.022Z,5.30
2018-08-14T08:20:00.086Z,4.80
2018-08-14T08:20:58.955Z,4.60
2018-08-14T08:21:58.961Z,4.90
2018-08-14T08:22:58.914Z,4.30
2018-08-14T08:23:58.989Z,4.30
2018-08-14T08:24:58.872Z,4.00
2018-08-14T08:25:58.881Z,3.10
2018-08-14T08:26:58.842Z,2.20
2018-08-14T08:27:58.806Z,2.60
2018-08-14T08:28:58.768Z,2.80
2018-08-14T08:31:37.124Z,3.00
2018-08-14T08:32:37.157Z,2.50
2018-08-14T08:33:37.072Z,2.50
2018-08-14T08:34:37.037Z,2.80
2018-08-14T08:35:36.993Z,2.30
2018-08-14T08:36:39.000Z,2.30
2018-08-14T08:37:36.951Z,2.70
2018-08-14T08:38:39.020Z,2.40
2018-08-14T08:39:36.917Z,2.50
2018-08-14T08:40:36.994Z,2.40
2018-08-14T08:41:36.891Z,2.10
2018-08-14T08:47:28.632Z,3.20
2018-08-14T08:48:28.495Z,2.30
2018-08-14T08:50:22.796Z,2.20
2018-08-14T08:51:22.790Z,2.10
2018-08-14T08:52:22.812Z,1.90
2018-08-14T08:53:22.700Z,1.80
2018-08-14T08:54:22.720Z,2.00
2018-08-14T08:55:22.644Z,2.00
2018-08-14T08:56:22.737Z,2.00
2018-08-14T08:57:22.601Z,2.10
2018-08-14T08:58:22.585Z,1.70
2018-08-14T08:59:22.691Z,2.00
2018-08-14T09:00:22.519Z,1.80
2018-08-14T09:01:22.603Z,1.60
2018-08-14T09:02:22.470Z,1.60
2018-08-14T09:03:22.524Z,1.40
2018-08-14T09:04:22.430Z,2.10
2018-08-14T09:05:22.526Z,1.40
2018-08-14T09:06:22.383Z,2.00
2018-08-14T09:07:22.445Z,1.60
2018-08-14T09:08:22.364Z,1.40
2018-08-14T09:09:22.493Z,1.50
2018-08-14T09:10:22.291Z,1.70
2018-08-14T09:11:23.389Z,1.50
2018-08-14T09:12:22.413Z,1.70
2018-08-14T09:13:23.303Z,1.90
2018-08-14T09:14:22.189Z,1.40
2018-08-14T09:15:22.271Z,1.80
2018-08-14T09:16:22.161Z,1.60
2018-08-14T09:17:23.247Z,1.50
2018-08-14T09:18:22.097Z,1.70
2018-08-14T09:19:28.071Z,1.50
2018-08-14T09:20:22.049Z,1.60
2018-08-14T09:21:22.149Z,1.60
2018-08-14T09:22:22.012Z,1.30
2018-08-14T09:23:23.127Z,1.60
2018-08-14T09:24:21.964Z,1.80
2018-08-14T09:25:22.116Z,1.50
2018-08-14T09:26:21.899Z,1.40
2018-08-14T09:27:32.568Z,1.30
2018-08-14T09:28:21.860Z,1.40
2018-08-14T09:29:26.435Z,0.90
2018-08-14T09:30:21.821Z,1.40
2018-08-14T09:31:21.855Z,1.60
2018-08-14T09:32:21.758Z,1.40
2018-08-14T09:33:21.757Z,1.20
2018-08-14T09:34:21.704Z,1.30
2018-08-14T09:35:22.791Z,1.30
2018-08-14T09:36:21.674Z,1.50
2018-08-14T09:39:58.236Z,2.30
2018-08-14T09:40:58.355Z,1.80
2018-08-14T09:41:58.152Z,1.40
2018-08-14T09:43:00.218Z,1.90
2018-08-14T09:43:58.116Z,1.70
2018-08-14T09:44:59.208Z,1.40
2018-08-14T09:45:58.061Z,1.70
2018-08-14T09:46:58.358Z,1.40
2018-08-14T09:47:58.011Z,1.70
2018-08-14T09:48:59.027Z,1.50
2018-08-14T09:49:57.967Z,1.90
2018-08-14T09:50:58.029Z,1.30
2018-08-14T09:51:57.910Z,2.00
2018-08-14T09:52:57.941Z,1.70
2018-08-14T09:53:57.956Z,1.30
2018-08-14T09:54:58.107Z,1.50
2018-08-14T09:55:57.818Z,1.40
2018-08-14T09:56:57.960Z,1.30
2018-08-14T09:57:57.794Z,1.40
2018-08-14T09:58:57.889Z,1.60
2018-08-14T09:59:57.743Z,1.40
2018-08-14T10:00:57.789Z,1.40
2018-08-14T10:01:57.762Z,1.40
2018-08-14T10:02:58.726Z,1.50
2018-08-14T10:03:57.625Z,1.40
2018-08-14T10:04:57.706Z,1.50
2018-08-14T10:05:57.582Z,1.30
2018-08-14T10:06:57.620Z,1.40
2018-08-14T10:07:57.541Z,1.60
2018-08-14T10:08:57.646Z,1.90
2018-08-14T10:09:57.482Z,1.60
2018-08-14T10:10:57.552Z,1.50
2018-08-14T10:11:57.470Z,1.30
2018-08-14T10:12:57.463Z,1.30
2018-08-14T10:13:57.653Z,1.20
2018-08-14T10:14:58.404Z,1.40
2018-08-14T10:15:57.359Z,1.10
2018-08-14T10:16:57.382Z,1.30
2018-08-14T10:17:57.288Z,1.50
2018-08-14T10:18:57.404Z,1.30
2018-08-14T10:19:57.309Z,1.40
2018-08-14T10:20:58.337Z,1.50
2018-08-14T10:22:44.567Z,1.80
2018-08-14T10:23:44.494Z,1.30
2018-08-14T10:24:44.486Z,1.10
2018-08-14T10:25:44.516Z,1.20
2018-08-14T10:26:44.467Z,1.80
2018-08-14T10:27:44.518Z,1.10
2018-08-14T10:28:44.504Z,1.50
2018-08-14T10:29:44.447Z,1.30
2018-08-14T10:30:44.334Z,1.40
2018-08-14T10:31:44.355Z,1.50
2018-08-14T10:32:44.289Z,2.10
2018-08-14T10:33:44.352Z,1.50
2018-08-14T10:34:44.248Z,1.40
2018-08-14T10:35:46.315Z,1.50
2018-08-14T10:36:44.188Z,1.30
2018-08-14T10:37:44.287Z,1.40
2018-08-14T10:38:44.153Z,1.20
2018-08-14T10:39:44.227Z,1.60
2018-08-14T10:40:44.100Z,1.60
2018-08-14T10:41:44.107Z,1.50
2018-08-14T10:42:44.077Z,1.80
2018-08-14T10:43:30.189Z,2.10
2018-08-14T10:44:30.196Z,1.40
2018-08-14T10:46:23.967Z,1.40
2018-08-14T10:47:23.970Z,1.10
2018-08-14T10:48:23.890Z,1.40
2018-08-14T10:49:23.893Z,1.20
2018-08-14T10:50:23.830Z,1.30
2018-08-14T10:51:23.888Z,1.30
2018-08-14T10:52:23.791Z,1.40
2018-08-14T10:53:23.810Z,1.70
2018-08-14T10:54:23.753Z,1.50
2018-08-14T10:55:23.817Z,1.40
2018-08-14T10:56:23.688Z,1.20
2018-08-14T10:57:23.736Z,1.50
2018-08-14T10:58:23.638Z,1.50
2018-08-14T10:59:23.633Z,1.00
2018-08-14T11:00:23.595Z,1.40
2018-08-14T11:01:23.655Z,1.20
2018-08-14T11:02:23.552Z,1.00
2018-08-14T11:03:23.596Z,1.20
2018-08-14T11:04:23.531Z,1.50
2018-08-14T11:05:23.576Z,1.00
2018-08-14T11:06:23.446Z,1.30
2018-08-14T11:08:09.865Z,1.40
2018-08-14T11:09:09.901Z,0.80
2018-08-14T11:10:09.788Z,1.30
2018-08-14T11:11:09.789Z,1.40
2018-08-14T11:12:09.739Z,1.40
2018-08-14T11:13:09.808Z,1.10
2018-08-14T11:14:09.692Z,1.30
2018-08-14T11:15:09.702Z,1.20
2018-08-14T11:16:09.677Z,1.50
2018-08-14T11:17:09.722Z,1.00
2018-08-14T11:18:09.595Z,1.40
2018-08-14T11:19:09.629Z,1.30
2018-08-14T11:20:09.551Z,1.10
2018-08-14T11:21:09.587Z,1.50
2018-08-14T11:22:09.505Z,1.20
2018-08-14T11:23:09.616Z,1.30
2018-08-14T11:24:09.463Z,1.30
2018-08-14T11:25:09.436Z,1.50
2018-08-14T11:26:09.556Z,1.20
2018-08-14T11:27:09.381Z,1.30
2018-08-14T11:28:09.446Z,1.40
2018-08-14T11:29:09.343Z,1.40
2018-08-14T11:30:09.446Z,1.10
2018-08-14T11:31:09.313Z,1.20
2018-08-14T11:32:09.357Z,1.50
2018-08-14T11:33:09.247Z,1.70
2018-08-14T11:34:09.377Z,1.30
2018-08-14T11:35:09.213Z,1.10
2018-08-14T11:36:09.278Z,1.30
2018-08-14T11:37:09.150Z,1.00
2018-08-14T11:38:09.191Z,1.00
2018-08-14T11:39:09.100Z,1.00
2018-08-14T11:40:09.207Z,1.30
2018-08-14T11:41:09.077Z,1.00
2018-08-14T11:42:09.123Z,1.60
2018-08-14T11:43:09.013Z,1.20
2018-08-14T11:44:09.149Z,1.20
2018-08-14T11:45:08.996Z,1.20
2018-08-14T11:46:09.088Z,1.30
2018-08-14T11:47:08.911Z,1.00
2018-08-14T11:48:09.055Z,1.40
2018-08-14T11:49:08.861Z,1.40
2018-08-14T11:50:08.969Z,1.30
2018-08-14T11:51:08.812Z,1.20
2018-08-14T11:52:08.889Z,1.40
2018-08-14T11:53:08.762Z,1.30
2018-08-14T11:54:08.888Z,1.50
2018-08-14T11:55:08.727Z,1.50
2018-08-14T11:56:08.839Z,1.60
2018-08-14T11:57:08.663Z,1.20
2018-08-14T11:58:08.713Z,1.60
2018-08-14T11:59:08.619Z,1.50
2018-08-14T12:00:08.729Z,1.40
2018-08-14T12:01:08.614Z,1.40
2018-08-14T12:02:10.235Z,1.30
2018-08-14T12:03:08.634Z,1.60
2018-08-14T12:04:08.501Z,1.40
2018-08-14T12:05:08.541Z,1.20
2018-08-14T12:06:08.461Z,1.70
2018-08-14T12:07:08.573Z,1.70
2018-08-14T12:08:08.445Z,1.50
2018-08-14T12:09:08.465Z,1.60
2018-08-14T12:10:08.376Z,1.50
2018-08-14T12:11:08.480Z,0.90
2018-08-14T12:12:08.312Z,1.20
2018-08-14T12:13:09.404Z,1.60
2018-08-14T12:14:10.804Z,1.60
2018-08-14T12:15:08.242Z,1.50
2018-08-14T12:16:08.219Z,1.60
2018-08-14T12:17:08.206Z,1.80
2018-08-14T12:18:08.277Z,1.40
2018-08-14T12:19:08.142Z,1.40
2018-08-14T12:20:08.190Z,1.10
2018-08-14T12:21:08.097Z,1.40
2018-08-14T12:22:08.122Z,1.30
2018-08-14T12:23:08.058Z,1.20
2018-08-14T12:24:08.119Z,1.00
2018-08-14T12:25:07.996Z,1.00
2018-08-14T12:26:08.016Z,1.20
2018-08-14T12:27:07.950Z,1.30
2018-08-14T12:28:08.035Z,1.30
2018-08-14T12:29:07.902Z,1.00
2018-08-14T12:30:07.947Z,1.20
2018-08-14T12:31:07.853Z,1.50
2018-08-14T12:32:54.246Z,1.90
2018-08-14T12:33:54.241Z,1.10
2018-08-14T12:34:54.178Z,1.10
2018-08-14T12:35:54.179Z,1.20
2018-08-14T12:36:54.132Z,1.30
2018-08-14T12:37:54.180Z,1.40
2018-08-14T12:38:54.080Z,1.40
2018-08-14T12:39:54.077Z,1.30
2018-08-14T12:40:54.028Z,1.30
2018-08-14T12:41:54.107Z,1.40
2018-08-14T12:42:53.984Z,1.10
2018-08-14T12:43:54.008Z,1.20
2018-08-14T12:44:53.974Z,1.30
2018-08-14T12:45:54.023Z,1.20
2018-08-14T12:46:53.897Z,1.40
2018-08-14T12:47:53.945Z,1.40
2018-08-14T12:48:53.841Z,1.40
2018-08-14T12:49:53.926Z,1.70
2018-08-14T12:50:53.806Z,1.50
2018-08-14T12:51:53.857Z,1.50
2018-08-14T12:52:53.760Z,1.30
2018-08-14T12:53:53.769Z,1.30
2018-08-14T12:54:53.704Z,1.70
2018-08-14T12:56:42.947Z,2.10
2018-08-14T12:57:42.947Z,1.20
2018-08-14T12:58:42.848Z,1.60
2018-08-14T12:59:43.867Z,1.30
2018-08-14T13:00:42.813Z,1.20
2018-08-14T13:01:42.802Z,1.40
2018-08-14T13:02:42.755Z,1.40
2018-08-14T13:03:42.761Z,1.50
2018-08-14T13:04:42.720Z,1.60
2018-08-14T13:05:42.776Z,1.80
2018-08-14T13:06:42.657Z,1.70
2018-08-14T13:07:42.692Z,1.40
2018-08-14T13:08:42.683Z,1.60
2018-08-14T13:09:42.615Z,1.80
2018-08-14T13:10:42.562Z,1.70
2018-08-14T13:11:42.617Z,1.50
2018-08-14T13:12:42.539Z,1.30
2018-08-14T13:13:42.539Z,1.50
2018-08-14T13:14:42.475Z,2.00
2018-08-14T13:15:42.536Z,1.40
2018-08-14T13:16:42.421Z,1.50
2018-08-14T13:17:42.451Z,1.70
2018-08-14T13:18:42.386Z,1.70
2018-08-14T13:19:42.464Z,1.70
2018-08-14T13:20:42.479Z,1.90
2018-08-14T13:21:42.374Z,1.50
2018-08-14T13:22:42.285Z,1.70
2018-08-14T13:23:42.276Z,1.70
2018-08-14T13:24:42.246Z,1.80
2018-08-14T13:25:42.300Z,1.60
2018-08-14T13:26:42.192Z,2.00
2018-08-14T13:27:42.224Z,2.10
2018-08-14T13:29:29.214Z,2.40
2018-08-14T13:30:29.222Z,1.90
2018-08-14T13:32:29.434Z,1.60
2018-08-14T13:33:31.490Z,1.40
2018-08-14T13:34:29.355Z,1.60
2018-08-14T13:35:29.356Z,1.80
2018-08-14T13:36:29.319Z,1.70
2018-08-14T13:37:29.391Z,1.40
2018-08-14T13:38:29.264Z,1.80
2018-08-14T13:39:29.288Z,1.80
2018-08-14T13:40:29.248Z,1.60
2018-08-14T13:41:29.291Z,1.40
2018-08-14T13:42:29.189Z,1.50
2018-08-14T13:43:30.223Z,1.40
2018-08-14T13:44:29.126Z,1.80
2018-08-14T13:45:30.132Z,2.10
2018-08-14T13:46:29.083Z,1.50
2018-08-14T13:47:29.127Z,1.70
2018-08-14T13:48:29.040Z,1.80
2018-08-14T13:49:29.039Z,1.40
2018-08-14T13:50:29.009Z,1.40
2018-08-14T13:51:29.046Z,1.50
2018-08-14T13:52:28.958Z,1.60
2018-08-14T13:53:30.045Z,1.50
2018-08-14T13:54:28.898Z,1.70
2018-08-14T13:55:28.977Z,1.30
2018-08-14T13:56:28.856Z,1.60
2018-08-14T13:57:29.907Z,1.60
2018-08-14T13:58:28.807Z,1.40
2018-08-14T13:59:28.792Z,2.10
2018-08-14T14:00:28.752Z,1.80
2018-08-14T14:01:29.843Z,1.50
2018-08-14T14:02:28.706Z,1.90
2018-08-14T14:03:28.716Z,1.40
2018-08-14T14:04:28.699Z,1.60
2018-08-14T14:05:28.732Z,1.40